Time;durP1;ratioP1;P1;durP2;ratioP2;P2;SDS_P1;SDS_P2;PMS_P1;PMS_P2;Temp;Humidity;BMP_temperature;BMP_pressure;BME280_temperature;BME280_humidity;BME280_pressure;Samples;Min_cycle;Max_cycle;Signal;HPM_P1;HPM_P2
2023/03/23 00:02:27;;;;;;;30.70;17.70;;;;;;;10.96;79.42;98430.44;107581;1310;22339;-42
2023/03/23 00:04:53;;;;;;;32.40;17.30;;;;;;;10.93;79.43;98428.90;107569;1310;22235;-42
2023/03/23 00:07:21;;;;;;;30.30;17.60;;;;;;;10.90;79.55;98428.38;107561;1310;22360;-42
2023/03/23 00:09:52;;;;;;;33.90;17.80;;;;;;;10.90;79.19;98432.61;107578;1310;22241;-42
2023/03/23 00:12:18;;;;;;;26.70;16.80;;;;;;;10.89;79.08;98433.75;107582;1310;22268;-42
2023/03/23 00:14:43;;;;;;;27.00;16.40;;;;;;;10.87;79.49;98431.20;107578;1310;22267;-42
2023/03/23 00:17:10;;;;;;;27.60;15.70;;;;;;;10.87;79.85;98429.85;107576;1310;23348;-43
2023/03/23 00:19:48;;;;;;;26.60;16.60;;;;;;;10.85;79.99;98430.66;107551;1310;22230;-42
2023/03/23 00:22:15;;;;;;;26.20;15.70;;;;;;;10.84;80.02;98434.21;107583;1310;22242;-43
2023/03/23 00:24:41;;;;;;;28.30;15.50;;;;;;;10.83;80.44;98435.02;107574;1310;22951;-42
2023/03/23 00:27:08;;;;;;;28.90;16.70;;;;;;;10.85;80.49;98434.20;107589;1310;22188;-42
2023/03/23 00:29:34;;;;;;;25.00;15.40;;;;;;;10.87;80.26;98437.35;107592;1310;22239;-41
2023/03/23 00:31:59;;;;;;;27.20;15.20;;;;;;;10.90;79.90;98436.14;107551;1310;22223;-42
2023/03/23 00:34:25;;;;;;;31.20;16.20;;;;;;;10.90;79.81;98428.76;107582;1310;22287;-43
2023/03/23 00:36:57;;;;;;;24.30;14.90;;;;;;;10.90;79.94;98424.58;107580;1310;22228;-43
2023/03/23 00:39:25;;;;;;;28.00;15.40;;;;;;;10.93;79.71;98425.21;107581;1310;22895;-43
2023/03/23 00:41:50;;;;;;;;;;;;;;;10.94;79.85;98425.27;107585;1310;23237;-42
2023/03/23 00:44:19;;;;;;;27.50;14.70;;;;;;;10.92;80.03;98426.13;107574;1310;22520;-42
2023/03/23 00:46:46;;;;;;;28.80;15.50;;;;;;;10.90;80.05;98419.96;107589;1310;22226;-42
2023/03/23 00:49:13;;;;;;;26.30;14.50;;;;;;;10.91;79.99;98420.40;107580;1310;23071;-41
2023/03/23 00:51:40;;;;;;;29.20;15.30;;;;;;;10.93;79.88;98420.08;107374;1311;23039;-42
2023/03/23 00:54:05;;;;;;;26.70;14.50;;;;;;;10.93;80.04;98422.04;107574;1310;22190;-42
2023/03/23 00:56:30;;;;;;;24.90;14.70;;;;;;;10.95;79.68;98423.66;107570;1310;22877;-42
2023/03/23 00:58:56;;;;;;;29.00;14.00;;;;;;;10.96;79.89;98421.48;107565;1310;22232;-42
2023/03/23 01:01:21;;;;;;;27.40;14.40;;;;;;;10.98;79.84;98418.56;107586;1310;22316;-43
2023/03/23 01:03:47;;;;;;;26.70;14.60;;;;;;;10.97;79.67;98414.60;107566;1310;22415;-42
2023/03/23 01:06:15;;;;;;;28.50;15.60;;;;;;;10.95;79.69;98415.02;107552;1310;22238;-42
2023/03/23 01:08:44;;;;;;;31.60;14.70;;;;;;;10.94;79.64;98409.66;107584;1310;22239;-43
2023/03/23 01:11:13;;;;;;;28.80;15.50;;;;;;;10.91;79.72;98406.73;107571;1310;22286;-43
2023/03/23 01:13:40;;;;;;;34.70;16.70;;;;;;;10.86;80.10;98407.80;107566;1310;22260;-41
2023/03/23 01:16:06;;;;;;;22.70;14.00;;;;;;;10.85;79.86;98404.91;107585;1310;23062;-44
2023/03/23 01:18:31;;;;;;;24.80;14.80;;;;;;;10.82;80.32;98398.95;107575;1310;23127;-43
2023/03/23 01:20:56;;;;;;;27.70;14.70;;;;;;;10.81;80.09;98399.08;107566;1310;22330;-43
2023/03/23 01:23:23;;;;;;;25.00;13.80;;;;;;;10.78;80.15;98399.92;107575;1310;22218;-42
2023/03/23 01:25:49;;;;;;;27.00;15.60;;;;;;;10.73;80.68;98398.89;107451;1310;22851;-42
2023/03/23 01:28:14;;;;;;;32.90;16.70;;;;;;;10.69;80.80;98399.84;107565;1310;22222;-43
2023/03/23 01:30:40;;;;;;;27.00;15.70;;;;;;;10.63;81.20;98403.08;107601;1310;22607;-43
2023/03/23 01:33:05;;;;;;;27.80;14.70;;;;;;;10.64;80.61;98406.55;107578;1310;22236;-42
2023/03/23 01:35:30;;;;;;;29.70;15.30;;;;;;;10.62;80.69;98407.34;107598;1310;22229;-43
2023/03/23 01:37:55;;;;;;;26.40;15.40;;;;;;;10.61;80.96;98403.41;107593;1310;24207;-43
2023/03/23 01:40:21;;;;;;;26.80;14.70;;;;;;;10.62;80.65;98407.05;107581;1310;22207;-42
2023/03/23 01:42:46;;;;;;;23.50;14.30;;;;;;;10.61;81.04;98405.51;107584;1310;22223;-42
2023/03/23 01:45:29;;;;;;;25.00;14.70;;;;;;;10.58;81.25;98404.51;107599;1310;22242;-42
2023/03/23 01:48:06;;;;;;;24.10;14.50;;;;;;;10.57;81.29;98403.35;107591;1303;22370;-42
2023/03/23 01:50:41;;;;;;;24.10;14.10;;;;;;;10.56;81.27;98400.42;107578;1310;22455;-42
2023/03/23 01:53:09;;;;;;;23.80;13.60;;;;;;;10.52;81.65;98399.13;107487;1310;22281;-41
2023/03/23 01:55:38;;;;;;;28.50;13.70;;;;;;;10.50;81.69;98397.72;107608;1310;22238;-42
2023/03/23 01:58:04;;;;;;;25.20;13.90;;;;;;;10.47;81.83;98397.93;107612;1310;22422;-42
2023/03/23 02:00:30;;;;;;;25.00;14.30;;;;;;;10.45;81.67;98395.03;107564;1310;22241;-41
2023/03/23 02:02:56;;;;;;;23.40;14.10;;;;;;;10.46;81.55;98395.52;107587;1310;22396;-41
2023/03/23 02:05:31;;;;;;;29.00;13.50;;;;;;;10.47;81.22;98396.64;107587;1310;22221;-42
2023/03/23 02:08:02;;;;;;;28.40;13.10;;;;;;;10.44;81.50;98397.92;107619;1310;22244;-42
2023/03/23 02:10:32;;;;;;;26.90;13.60;;;;;;;10.44;81.54;98396.04;107625;1310;22872;-43
2023/03/23 02:13:00;;;;;;;27.30;14.40;;;;;;;10.45;81.61;98390.46;107598;1310;22248;-42
2023/03/23 02:15:32;;;;;;;25.60;14.30;;;;;;;10.45;81.68;98389.97;107602;1310;22258;-42
2023/03/23 02:18:08;;;;;;;27.70;13.60;;;;;;;10.43;81.85;98391.38;107600;1310;22203;-42
2023/03/23 02:20:34;;;;;;;23.70;13.60;;;;;;;10.43;81.59;98393.45;107582;1310;23030;-42
2023/03/23 02:23:24;;;;;;;25.50;13.40;;;;;;;10.42;81.66;98394.94;107606;1310;22422;-42
2023/03/23 02:26:20;;;;;;;23.20;13.70;;;;;;;10.38;81.82;98397.59;107597;1310;22995;-44
2023/03/23 02:29:11;;;;;;;21.60;13.10;;;;;;;10.35;81.92;98394.84;107598;1310;22217;-43
2023/03/23 02:31:56;;;;;;;22.80;13.50;;;;;;;10.32;82.08;98391.89;107538;1310;22435;-43
2023/03/23 02:34:29;;;;;;;24.70;13.90;;;;;;;10.33;81.81;98390.24;107586;1310;22600;-43
2023/03/23 02:37:08;;;;;;;25.50;13.20;;;;;;;10.26;82.44;98386.85;107594;1310;22404;-42
2023/03/23 02:39:40;;;;;;;25.40;12.90;;;;;;;10.27;81.96;98389.60;107620;1310;22530;-43
2023/03/23 02:42:12;;;;;;;26.70;13.40;;;;;;;10.25;82.06;98386.42;107594;1310;22441;-43
2023/03/23 02:44:42;;;;;;;21.90;13.50;;;;;;;10.25;82.03;98386.95;107582;1310;22222;-43
2023/03/23 02:47:14;;;;;;;24.10;13.00;;;;;;;10.26;82.14;98387.39;107602;1310;23185;-43
2023/03/23 02:49:42;;;;;;;22.20;13.10;;;;;;;10.27;81.84;98389.61;107601;1310;22247;-43
2023/03/23 02:52:14;;;;;;;22.40;12.80;;;;;;;10.25;82.12;98392.39;107575;1310;23305;-43
2023/03/23 02:54:42;;;;;;;22.70;12.50;;;;;;;10.23;82.33;98396.01;107578;1310;22222;-43
2023/03/23 02:59:32;;;;;;;21.40;13.00;;;;;;;10.27;81.99;98389.43;107490;1305;557827;-41
2023/03/23 03:02:08;;;;;;;23.00;13.50;;;;;;;10.23;81.87;98390.36;107747;1309;22444;-42
2023/03/23 03:04:34;;;;;;;24.50;13.50;;;;;;;10.14;82.59;98393.10;107527;1309;22719;-41
2023/03/23 03:07:25;;;;;;;23.50;13.70;;;;;;;10.12;82.64;98389.73;107743;1309;23178;-42
2023/03/23 03:09:56;;;;;;;23.30;13.40;;;;;;;10.06;82.96;98385.56;107731;1309;23176;-42
2023/03/23 03:12:33;;;;;;;19.90;13.60;;;;;;;10.00;83.18;98383.38;107729;1307;131928;-42
2023/03/23 03:15:23;;;;;;;22.00;13.60;;;;;;;9.97;83.25;98383.89;108004;1307;22494;-42
2023/03/23 03:17:59;;;;;;;22.50;14.10;;;;;;;9.91;83.43;98382.36;108032;1306;22428;-42
2023/03/23 03:20:26;;;;;;;23.90;14.10;;;;;;;9.86;83.86;98378.32;108002;1307;22257;-42
2023/03/23 03:22:53;;;;;;;26.30;14.90;;;;;;;9.82;84.07;98375.65;107996;1307;22511;-42
2023/03/23 03:25:19;;;;;;;24.40;12.70;;;;;;;9.80;83.50;98371.88;108008;1307;22256;-42
2023/03/23 03:27:52;;;;;;;25.60;13.80;;;;;;;9.75;83.93;98370.84;108024;1307;22972;-42
2023/03/23 03:30:21;;;;;;;21.80;14.10;;;;;;;9.73;83.75;98367.98;107989;1307;23072;-42
2023/03/23 03:32:53;;;;;;;24.50;13.10;;;;;;;9.70;84.09;98367.17;107985;1292;22341;-42
2023/03/23 03:35:21;;;;;;;26.50;12.50;;;;;;;9.66;84.39;98363.39;107957;1307;22251;-42
2023/03/23 03:37:47;;;;;;;18.10;11.70;;;;;;;9.61;84.69;98361.27;107968;1307;22718;-43
2023/03/23 03:40:16;;;;;;;19.80;11.90;;;;;;;9.63;84.52;98360.95;107968;1307;22910;-42
2023/03/23 03:42:43;;;;;;;16.70;11.60;;;;;;;9.64;84.79;98360.77;107963;1307;22489;-42
2023/03/23 03:45:10;;;;;;;25.30;11.90;;;;;;;9.67;84.63;98365.09;107970;1307;22248;-42
2023/03/23 03:47:35;;;;;;;19.30;10.90;;;;;;;9.72;84.11;98363.88;107941;1307;22251;-42
2023/03/23 03:50:01;;;;;;;18.20;10.60;;;;;;;9.75;84.30;98360.19;107950;1307;22258;-42
2023/03/23 03:52:27;;;;;;;20.40;11.00;;;;;;;9.78;83.82;98358.72;107960;1307;22405;-41
2023/03/23 03:54:53;;;;;;;18.70;10.90;;;;;;;9.82;83.90;98362.16;107979;1307;22463;-43
2023/03/23 03:57:18;;;;;;;19.60;11.00;;;;;;;9.87;83.84;98361.48;108000;1307;22419;-43
2023/03/23 03:59:43;;;;;;;22.10;11.40;;;;;;;9.86;83.67;98363.64;107980;1307;22247;-42
2023/03/23 04:02:13;;;;;;;18.20;10.10;;;;;;;9.85;83.76;98365.27;107977;1307;22255;-42
2023/03/23 04:04:39;;;;;;;16.90;10.10;;;;;;;9.88;83.52;98366.85;107977;1307;22468;-42
2023/03/23 04:07:05;;;;;;;17.70;9.90;;;;;;;9.91;83.36;98361.02;107959;1307;22300;-42
2023/03/23 04:09:31;;;;;;;18.90;10.10;;;;;;;9.88;83.46;98358.93;107936;1308;22302;-42
2023/03/23 04:11:56;;;;;;;16.90;10.10;;;;;;;9.89;83.42;98356.60;107906;1308;22227;-42
2023/03/23 04:14:21;;;;;;;23.30;10.70;;;;;;;9.95;83.11;98358.78;107881;1307;23131;-42
2023/03/23 04:16:47;;;;;;;16.90;10.20;;;;;;;9.98;82.98;98359.33;107894;1308;22256;-42
2023/03/23 04:19:12;;;;;;;18.50;10.40;;;;;;;10.01;82.70;98357.23;107907;1307;22969;-43
2023/03/23 04:21:38;;;;;;;16.40;9.90;;;;;;;9.96;82.80;98362.77;107911;1308;23315;-42
2023/03/23 04:24:03;;;;;;;14.80;9.80;;;;;;;9.97;82.91;98362.52;107896;1307;22257;-43
2023/03/23 04:26:29;;;;;;;16.00;9.80;;;;;;;9.99;82.81;98357.52;107888;1308;22428;-42
2023/03/23 04:28:55;;;;;;;17.80;10.60;;;;;;;9.99;82.61;98356.63;107917;1308;23232;-42
2023/03/23 04:31:24;;;;;;;20.30;10.40;;;;;;;9.97;82.63;98350.97;107901;1307;22213;-43
2023/03/23 04:33:52;;;;;;;19.50;10.30;;;;;;;9.98;82.41;98346.20;107897;1308;22434;-43
2023/03/23 04:36:18;;;;;;;17.40;9.50;;;;;;;10.00;82.42;98349.74;107917;1308;22226;-42
2023/03/23 04:38:43;;;;;;;19.40;10.30;;;;;;;10.01;82.33;98346.55;107906;1308;22532;-42
2023/03/23 04:41:09;;;;;;;18.40;10.30;;;;;;;10.02;82.30;98344.89;107898;1308;22252;-42
2023/03/23 04:43:41;;;;;;;19.20;10.10;;;;;;;9.98;82.43;98341.80;107924;1307;22921;-42
2023/03/23 04:46:08;;;;;;;19.50;9.70;;;;;;;9.97;82.40;98338.05;107914;1307;22485;-42
2023/03/23 04:48:34;;;;;;;17.60;9.10;;;;;;;9.98;82.19;98333.20;107895;1308;22408;-42
2023/03/23 04:51:03;;;;;;;15.10;9.50;;;;;;;10.01;82.09;98333.41;107892;1308;22486;-42
2023/03/23 04:53:30;;;;;;;16.50;9.50;;;;;;;10.00;82.16;98330.85;107924;1308;22991;-43
2023/03/23 04:55:55;;;;;;;15.20;9.30;;;;;;;9.99;82.20;98332.16;107932;1308;22441;-43
2023/03/23 04:58:23;;;;;;;13.00;8.70;;;;;;;9.93;82.54;98330.60;107913;1307;22445;-43
2023/03/23 05:00:49;;;;;;;12.50;8.80;;;;;;;9.99;82.35;98330.18;107905;1307;22406;-43
2023/03/23 05:03:18;;;;;;;16.60;8.70;;;;;;;10.01;82.35;98326.77;107909;1307;22457;-40
2023/03/23 05:05:46;;;;;;;16.20;8.80;;;;;;;10.02;81.99;98324.54;107920;1307;22227;-42
2023/03/23 05:08:15;;;;;;;18.70;9.10;;;;;;;10.02;82.13;98327.20;107914;1308;22238;-41
2023/03/23 05:10:40;;;;;;;15.00;8.50;;;;;;;10.05;82.20;98323.16;107909;1307;22393;-42
2023/03/23 05:13:06;;;;;;;16.10;8.90;;;;;;;10.04;82.16;98324.10;107898;1308;22462;-42
2023/03/23 05:15:31;;;;;;;14.90;8.30;;;;;;;10.05;82.33;98327.39;107881;1308;22273;-42
2023/03/23 05:17:56;;;;;;;11.80;8.60;;;;;;;10.06;82.08;98322.70;107914;1307;22221;-42
2023/03/23 05:20:22;;;;;;;13.00;8.20;;;;;;;10.13;81.93;98326.64;107872;1307;22237;-42
2023/03/23 05:22:49;;;;;;;16.20;8.80;;;;;;;10.17;81.65;98320.05;107884;1307;22252;-41
2023/03/23 05:25:15;;;;;;;17.20;9.10;;;;;;;10.18;81.69;98322.41;107911;1308;23071;-42
2023/03/23 05:27:48;;;;;;;19.00;9.20;;;;;;;10.21;81.59;98325.04;107877;1308;23044;-42
2023/03/23 05:30:16;;;;;;;21.80;8.80;;;;;;;10.25;81.42;98326.66;107902;1308;22557;-43
2023/03/23 05:32:42;;;;;;;15.70;8.40;;;;;;;10.25;81.28;98330.52;107900;1308;22354;-42
2023/03/23 05:35:08;;;;;;;15.90;8.40;;;;;;;10.25;81.23;98330.48;107912;1307;22876;-42
2023/03/23 05:37:33;;;;;;;16.10;8.40;;;;;;;10.28;81.09;98327.00;107885;1308;22240;-40
2023/03/23 05:40:04;;;;;;;20.50;8.60;;;;;;;10.29;80.70;98327.63;107916;1308;22327;-40
2023/03/23 05:42:31;;;;;;;16.30;8.20;;;;;;;10.28;80.81;98332.77;107926;1308;22228;-41
2023/03/23 05:44:56;;;;;;;20.40;9.50;;;;;;;10.27;80.94;98331.80;107880;1308;22935;-41
2023/03/23 05:47:21;;;;;;;14.20;8.90;;;;;;;10.28;80.98;98331.20;107897;1308;23011;-43
2023/03/23 05:49:47;;;;;;;18.30;8.60;;;;;;;10.30;81.04;98339.11;107901;1307;22228;-41
2023/03/23 05:52:13;;;;;;;16.60;8.50;;;;;;;10.33;80.84;98339.11;107906;1308;22252;-41
2023/03/23 05:54:38;;;;;;;18.50;8.40;;;;;;;10.35;81.03;98338.05;107902;1307;23056;-42
2023/03/23 05:57:03;;;;;;;20.80;8.40;;;;;;;10.37;80.76;98338.52;107926;1308;22894;-41
2023/03/23 05:59:29;;;;;;;15.70;8.20;;;;;;;10.38;80.90;98338.93;107923;1308;23150;-41
2023/03/23 06:01:55;;;;;;;21.80;9.40;;;;;;;10.43;80.73;98337.90;107915;1307;22260;-41
2023/03/23 06:04:24;;;;;;;32.00;10.40;;;;;;;10.48;80.72;98339.11;107889;1307;22963;-41
2023/03/23 06:06:51;;;;;;;25.50;10.10;;;;;;;10.51;80.68;98336.98;107898;1308;22261;-42
2023/03/23 06:09:17;;;;;;;21.60;9.80;;;;;;;10.54;80.57;98339.41;107912;1286;22351;-41
2023/03/23 06:11:42;;;;;;;18.40;8.60;;;;;;;10.56;80.39;98335.06;107879;1307;22255;-42
2023/03/23 06:14:08;;;;;;;12.80;7.50;;;;;;;10.61;80.21;98335.91;107902;1308;22273;-41
2023/03/23 06:16:33;;;;;;;16.60;8.20;;;;;;;10.65;80.15;98337.42;107894;1307;23192;-41
2023/03/23 06:19:00;;;;;;;12.00;7.80;;;;;;;10.65;80.07;98333.21;107910;1308;22462;-41
2023/03/23 06:21:25;;;;;;;18.30;8.60;;;;;;;10.70;80.15;98330.73;107908;1308;22759;-42
2023/03/23 06:23:51;;;;;;;18.20;8.60;;;;;;;10.74;79.93;98328.13;107930;1308;22435;-42
2023/03/23 06:26:19;;;;;;;18.30;8.20;;;;;;;10.81;79.73;98326.14;107905;1307;22402;-41
2023/03/23 06:28:45;;;;;;;17.60;8.80;;;;;;;10.84;79.53;98327.79;107697;1307;22980;-42
2023/03/23 06:31:11;;;;;;;14.30;8.40;;;;;;;10.91;79.47;98328.38;107921;1308;23176;-42
2023/03/23 06:33:37;;;;;;;27.90;10.60;;;;;;;10.96;79.41;98326.97;107881;1308;22240;-42
2023/03/23 06:36:04;;;;;;;17.80;9.80;;;;;;;10.99;79.12;98328.69;107920;1308;22201;-42
2023/03/23 06:38:30;;;;;;;15.80;10.00;;;;;;;11.05;79.07;98332.65;107900;1308;22327;-41
2023/03/23 06:40:56;;;;;;;16.90;9.30;;;;;;;11.11;78.93;98338.34;107934;1307;23310;-43
2023/03/23 06:43:22;;;;;;;23.10;9.80;;;;;;;11.14;78.44;98345.83;107922;1308;22447;-42
2023/03/23 06:45:48;;;;;;;16.90;9.40;;;;;;;11.16;78.27;98343.41;107933;1303;22489;-42
2023/03/23 06:48:13;;;;;;;19.60;9.20;;;;;;;11.18;78.37;98341.85;107909;1308;22263;-42
2023/03/23 06:50:42;;;;;;;19.50;9.20;;;;;;;11.23;78.31;98343.09;107913;1308;22229;-42
2023/03/23 06:53:08;;;;;;;17.90;9.30;;;;;;;11.27;78.16;98347.67;107930;1308;22671;-44
2023/03/23 06:55:33;;;;;;;17.50;9.10;;;;;;;11.30;77.96;98348.66;107899;1308;22298;-42
2023/03/23 06:58:01;;;;;;;23.30;9.50;;;;;;;11.29;77.46;98347.20;107914;1308;22319;-42
2023/03/23 07:00:26;;;;;;;19.00;9.40;;;;;;;11.29;77.55;98345.08;107932;1308;23077;-42
2023/03/23 07:02:52;;;;;;;16.20;8.80;;;;;;;11.35;77.57;98343.76;107930;1307;23641;-42
2023/03/23 07:05:18;;;;;;;19.10;10.00;;;;;;;11.40;77.45;98341.46;107897;1308;22959;-42
2023/03/23 07:07:43;;;;;;;16.10;8.70;;;;;;;11.47;77.16;98341.13;107922;1307;22425;-42
2023/03/23 07:10:10;;;;;;;20.40;9.10;;;;;;;11.55;76.96;98333.85;107908;1308;22335;-43
2023/03/23 07:12:35;;;;;;;19.10;8.70;;;;;;;11.66;76.73;98334.96;107911;1307;22427;-43
2023/03/23 07:15:02;;;;;;;15.90;8.80;;;;;;;11.75;76.23;98334.49;107910;1308;23243;-43
2023/03/23 07:17:28;;;;;;;22.30;10.20;;;;;;;11.84;76.03;98330.95;107893;1308;22255;-43
2023/03/23 07:19:54;;;;;;;14.10;9.70;;;;;;;11.90;74.70;98330.00;107908;1308;22410;-42
2023/03/23 07:22:19;;;;;;;29.70;10.80;;;;;;;12.03;74.96;98333.09;107901;1307;23704;-42
2023/03/23 07:24:44;;;;;;;19.70;10.10;;;;;;;12.11;73.94;98333.05;107894;1308;22147;-42
2023/03/23 07:27:10;;;;;;;24.40;9.90;;;;;;;12.23;74.08;98332.46;107867;1307;22247;-42
2023/03/23 07:29:38;;;;;;;23.70;10.50;;;;;;;12.35;74.12;98327.66;107890;1308;23159;-43
2023/03/23 07:32:04;;;;;;;25.10;9.70;;;;;;;12.46;73.62;98326.44;107915;1308;23173;-43
2023/03/23 07:34:30;;;;;;;20.30;9.20;;;;;;;12.51;72.62;98331.84;107877;1308;22217;-43
2023/03/23 07:36:55;;;;;;;16.00;9.00;;;;;;;12.55;71.32;98329.45;107889;1308;22393;-42
2023/03/23 07:39:21;;;;;;;17.80;8.10;;;;;;;12.73;72.05;98329.23;107875;1308;22257;-42
2023/03/23 07:41:46;;;;;;;15.20;7.60;;;;;;;12.79;70.38;98327.38;107874;1307;22196;-42
2023/03/23 07:44:11;;;;;;;14.10;7.00;;;;;;;12.97;71.61;98319.58;107894;1307;22427;-42
2023/03/23 07:46:37;;;;;;;17.80;6.60;;;;;;;13.08;69.03;98323.46;107900;1307;22791;-42
2023/03/23 07:49:05;;;;;;;13.20;6.60;;;;;;;13.22;68.70;98316.70;107895;1307;22474;-43
2023/03/23 07:51:31;;;;;;;15.60;6.50;;;;;;;13.33;67.84;98314.39;107909;1307;22459;-42
2023/03/23 07:53:56;;;;;;;17.50;6.70;;;;;;;13.38;66.43;98311.49;107894;1307;22929;-43
2023/03/23 07:56:22;;;;;;;17.90;6.80;;;;;;;13.48;66.68;98305.77;107898;1307;22301;-43
2023/03/23 07:58:49;;;;;;;21.00;6.10;;;;;;;13.57;65.79;98302.86;107876;1307;22283;-41
2023/03/23 08:01:15;;;;;;;11.40;6.20;;;;;;;13.69;66.02;98303.36;107909;1307;22244;-41
2023/03/23 08:03:40;;;;;;;10.70;5.30;;;;;;;13.79;65.74;98305.13;107912;1307;22972;-42
2023/03/23 08:06:06;;;;;;;11.50;5.70;;;;;;;13.88;64.75;98309.98;107898;1307;22382;-42
2023/03/23 08:08:32;;;;;;;13.20;5.80;;;;;;;14.07;66.03;98306.67;107893;1307;23200;-42
2023/03/23 08:10:58;;;;;;;29.30;6.30;;;;;;;14.21;64.23;98312.34;107895;1307;22392;-43
2023/03/23 08:13:24;;;;;;;10.40;5.60;;;;;;;14.31;63.73;98303.20;107896;1307;22223;-41
2023/03/23 08:15:49;;;;;;;8.20;4.90;;;;;;;14.41;62.64;98298.26;107900;1307;23078;-42
2023/03/23 08:18:15;;;;;;;11.00;5.70;;;;;;;14.62;64.15;98298.59;107901;1307;22536;-42
2023/03/23 08:20:41;;;;;;;12.10;5.30;;;;;;;14.84;63.42;98296.44;107918;1307;23216;-42
2023/03/23 08:23:07;;;;;;;11.50;5.70;;;;;;;15.03;62.68;98297.66;107917;1308;22366;-43
2023/03/23 08:25:33;;;;;;;13.40;5.00;;;;;;;15.08;59.83;98304.27;107922;1307;22410;-42
2023/03/23 08:28:01;;;;;;;6.40;4.80;;;;;;;15.07;58.29;98308.21;107903;1308;22480;-42
2023/03/23 08:30:29;;;;;;;13.40;4.80;;;;;;;15.11;59.22;98305.52;107911;1308;22378;-44
2023/03/23 08:32:56;;;;;;;11.40;4.40;;;;;;;15.12;59.10;98305.84;107906;1307;22257;-43
2023/03/23 08:35:22;;;;;;;7.00;4.40;;;;;;;15.18;59.28;98305.29;107918;1308;22326;-42
2023/03/23 08:37:51;;;;;;;9.00;4.50;;;;;;;15.20;58.81;98303.52;107689;1308;22222;-42
2023/03/23 08:40:19;;;;;;;12.00;4.70;;;;;;;15.17;57.66;98304.81;107908;1308;22247;-41
2023/03/23 08:42:45;;;;;;;13.40;4.50;;;;;;;15.16;57.38;98307.73;107916;1307;22218;-42
2023/03/23 08:45:15;;;;;;;6.30;4.10;;;;;;;15.23;57.76;98303.93;107910;1308;22272;-42
2023/03/23 08:47:43;;;;;;;5.60;4.60;;;;;;;15.21;57.50;98299.88;107913;1307;22272;-42
2023/03/23 08:50:12;;;;;;;8.30;4.00;;;;;;;15.21;57.24;98296.04;107269;1312;22276;-43
2023/03/23 08:52:38;;;;;;;8.80;4.00;;;;;;;15.28;57.72;98292.89;107352;1312;22696;-44
2023/03/23 08:55:05;;;;;;;7.90;4.50;;;;;;;15.36;57.24;98293.77;107333;1312;23149;-43
2023/03/23 08:57:31;;;;;;;5.90;3.90;;;;;;;15.47;56.64;98294.34;107372;1312;22281;-45
2023/03/23 09:00:01;;;;;;;6.40;3.60;;;;;;;15.68;57.13;98285.02;107497;1311;22925;-43
2023/03/23 09:02:27;;;;;;;6.20;4.10;;;;;;;15.77;55.91;98282.62;107505;1311;23043;-42
2023/03/23 09:04:53;;;;;;;9.60;4.50;;;;;;;15.97;55.71;98283.27;107504;1311;22238;-43
2023/03/23 09:07:19;;;;;;;9.70;3.90;;;;;;;16.22;55.23;98281.45;107488;1311;22287;-42
2023/03/23 09:09:45;;;;;;;4.40;3.20;;;;;;;16.51;53.57;98278.34;107503;1311;22487;-43
2023/03/23 09:12:11;;;;;;;7.60;3.50;;;;;;;16.79;51.69;98277.24;107503;1311;22864;-43
2023/03/23 09:14:37;;;;;;;5.80;3.50;;;;;;;17.11;50.52;98273.02;107494;1311;22285;-42
2023/03/23 09:17:04;;;;;;;11.70;3.50;;;;;;;17.57;50.20;98268.98;107484;1311;22370;-43
2023/03/23 09:19:30;;;;;;;9.00;3.00;;;;;;;17.96;48.21;98271.88;107474;1311;22925;-43
2023/03/23 09:21:56;;;;;;;5.10;2.70;;;;;;;18.37;47.51;98270.28;107824;1306;22260;-44
2023/03/23 09:24:21;;;;;;;4.00;2.60;;;;;;;18.84;46.36;98269.70;108049;1306;23352;-44
2023/03/23 09:26:47;;;;;;;4.00;2.50;;;;;;;19.25;46.00;98279.05;108039;1306;22255;-43
2023/03/23 09:29:13;;;;;;;3.20;2.10;;;;;;;19.41;44.53;98278.83;108065;1306;22255;-43
2023/03/23 09:31:39;;;;;;;5.60;2.50;;;;;;;19.52;44.34;98271.14;108036;1306;22322;-42
2023/03/23 09:34:06;;;;;;;8.90;2.20;;;;;;;19.64;43.21;98265.40;108043;1298;22309;-42
2023/03/23 09:36:31;;;;;;;13.10;3.00;;;;;;;19.73;44.71;98265.67;107992;1301;22265;-42
2023/03/23 09:38:59;;;;;;;10.30;2.40;;;;;;;19.64;44.34;98261.50;108071;1306;22393;-43
2023/03/23 09:42:02;;;;;;;4.90;2.30;;;;;;;19.32;44.04;98262.98;108014;1306;23100;-42
2023/03/23 09:44:52;;;;;;;3.00;2.00;;;;;;;19.11;44.44;98264.84;108020;1298;22272;-41
2023/03/23 09:47:36;;;;;;;3.00;1.80;;;;;;;18.85;42.91;98257.48;108045;1306;22299;-42
2023/03/23 09:50:32;;;;;;;9.20;2.30;;;;;;;18.67;43.10;98250.66;107991;1295;22413;-43
2023/03/23 09:53:17;;;;;;;5.30;2.20;;;;;;;18.63;43.53;98248.98;108019;1306;22422;-42
2023/03/23 09:55:42;;;;;;;3.50;1.70;;;;;;;18.63;42.68;98252.15;107964;1307;22234;-41
2023/03/23 09:58:17;;;;;;;5.50;2.20;;;;;;;18.64;41.98;98254.21;108005;1307;22218;-41
2023/03/23 10:01:19;;;;;;;5.70;2.30;;;;;;;18.70;41.55;98252.16;107980;1307;22462;-42
2023/03/23 10:03:46;;;;;;;6.00;2.30;;;;;;;18.67;40.93;98256.16;107062;1315;22279;-42
2023/03/23 10:06:17;;;;;;;5.10;2.60;;;;;;;18.66;41.24;98255.38;107058;1316;22295;-42
2023/03/23 10:09:05;;;;;;;6.10;2.70;;;;;;;18.58;40.92;98253.92;107060;1316;22343;-41
2023/03/23 10:11:50;;;;;;;6.80;2.40;;;;;;;18.53;41.43;98252.52;107078;1315;23007;-41
2023/03/23 10:14:33;;;;;;;10.50;2.80;;;;;;;18.47;41.82;98248.02;107058;1316;23043;-41
2023/03/23 10:17:19;;;;;;;5.30;2.90;;;;;;;18.39;42.18;98248.08;107076;1315;22239;-41
2023/03/23 10:20:14;;;;;;;2.90;2.30;;;;;;;18.34;42.37;98246.52;107067;1316;22264;-42
2023/03/23 10:22:52;;;;;;;5.40;2.60;;;;;;;18.41;43.62;98243.05;106829;1316;22286;-42
2023/03/23 10:25:23;;;;;;;9.90;2.70;;;;;;;18.44;43.17;98238.02;107005;1315;22307;-41
2023/03/23 10:27:57;;;;;;;4.10;2.60;;;;;;;18.38;42.83;98237.52;107031;1316;22301;-42
2023/03/23 10:30:42;;;;;;;4.90;2.40;;;;;;;18.34;43.21;98239.42;107061;1316;22349;-41
2023/03/23 10:33:38;;;;;;;8.90;2.70;;;;;;;18.29;42.90;98236.41;107052;1315;23242;-42
2023/03/23 10:36:25;;;;;;;8.00;3.30;;;;;;;18.38;43.52;98236.15;107071;1315;23178;-39
2023/03/23 10:39:13;;;;;;;7.70;3.00;;;;;;;18.58;43.44;98230.56;107211;1309;22816;-41
2023/03/23 10:41:38;;;;;;;9.10;3.00;;;;;;;18.82;43.07;98225.48;107807;1307;22232;-42
2023/03/23 10:44:16;;;;;;;5.20;3.10;;;;;;;18.99;42.39;98230.39;107989;1307;22249;-41
2023/03/23 10:46:59;;;;;;;11.10;3.50;;;;;;;19.22;42.28;98234.45;108019;1307;22277;-43
2023/03/23 10:49:30;;;;;;;10.00;3.80;;;;;;;19.40;41.75;98236.01;107995;1307;23562;-41
2023/03/23 10:52:06;;;;;;;5.90;3.10;;;;;;;19.50;41.03;98228.91;107984;1307;23214;-42
2023/03/23 10:54:46;;;;;;;8.10;3.30;;;;;;;19.62;41.07;98226.30;107998;1307;22232;-43
2023/03/23 10:57:33;;;;;;;8.30;3.30;;;;;;;19.68;41.15;98224.06;107995;1292;22231;-42
2023/03/23 11:00:17;;;;;;;;;;;;;;;19.69;41.31;98223.34;108009;1303;22473;-42
2023/03/23 11:02:47;;;;;;;9.80;3.70;;;;;;;19.64;41.00;98223.80;108023;1306;22409;-42
2023/03/23 11:05:20;;;;;;;6.20;3.90;;;;;;;19.59;41.01;98227.90;108033;1306;22533;-43
2023/03/23 11:07:54;;;;;;;8.20;3.80;;;;;;;19.53;40.68;98216.14;108017;1306;22402;-42
2023/03/23 11:10:34;;;;;;;5.90;3.40;;;;;;;19.78;40.85;98219.47;108028;1302;22254;-42
2023/03/23 11:13:00;;;;;;;10.70;3.80;;;;;;;20.08;40.83;98209.02;108103;1302;22255;-43
2023/03/23 11:15:31;;;;;;;5.20;3.40;;;;;;;20.05;40.42;98217.16;108019;1305;22428;-43
2023/03/23 11:18:02;;;;;;;6.90;3.60;;;;;;;19.98;41.01;98227.36;108059;1299;23065;-43
2023/03/23 11:20:33;;;;;;;8.20;3.80;;;;;;;19.87;40.39;98228.98;107993;1292;22254;-43
2023/03/23 11:22:58;;;;;;;5.70;3.20;;;;;;;19.81;39.83;98233.20;108029;1306;22287;-43
2023/03/23 11:25:26;;;;;;;6.80;3.70;;;;;;;19.82;39.70;98232.08;108033;1306;22297;-43
2023/03/23 11:27:52;;;;;;;7.10;3.10;;;;;;;20.15;39.71;98235.21;108009;1306;22470;-42
2023/03/23 11:30:24;;;;;;;5.40;3.30;;;;;;;20.15;39.97;98236.35;108039;1298;23161;-43